createdAt,value
2023-02-21T00:38:28.287Z,7.26
2023-02-21T00:49:38.108Z,5.98
2023-02-21T00:57:08.306Z,7.34
2023-02-21T01:00:08.066Z,10.61
2023-02-21T01:11:55.822Z,7.92
2023-02-21T01:15:31.687Z,6.52
2023-02-21T01:21:36.853Z,5.92
2023-02-21T01:25:10.818Z,5.98
2023-02-21T01:28:37.368Z,10.86
2023-02-21T01:31:32.807Z,6.50
2023-02-21T01:43:53.994Z,5.70
2023-02-21T02:41:44.017Z,11.15
2023-02-21T02:44:28.636Z,7.68
2023-02-21T02:47:08.242Z,6.14
2023-02-21T02:49:50.108Z,6.77
2023-02-21T02:52:28.885Z,6.21
2023-02-21T02:55:27.616Z,6.22
2023-02-21T02:57:56.506Z,6.41
2023-02-21T03:00:29.520Z,7.32
2023-02-21T03:03:06.587Z,11.18
2023-02-21T03:06:06.929Z,6.39
2023-02-21T03:08:54.385Z,7.14
2023-02-21T03:11:27.365Z,7.53
2023-02-21T03:14:04.250Z,11.10
2023-02-21T03:16:44.456Z,6.53
2023-02-21T03:19:17.751Z,6.35
2023-02-21T03:21:55.502Z,6.40
2023-02-21T03:24:27.031Z,6.42
2023-02-21T03:27:29.103Z,7.38
2023-02-21T03:30:23.045Z,9.61
2023-02-21T03:33:03.976Z,6.81
2023-02-21T03:35:32.977Z,6.90
2023-02-21T03:38:00.770Z,7.61
2023-02-21T03:40:35.354Z,9.77
2023-02-21T03:43:09.654Z,6.47
2023-02-21T03:45:53.603Z,10.03
2023-02-21T03:48:31.559Z,6.82
2023-02-21T03:51:10.096Z,7.01
2023-02-21T03:53:38.686Z,6.17
2023-02-21T03:56:10.413Z,5.81
2023-02-21T03:59:01.376Z,5.77
2023-02-21T04:01:36.457Z,9.93
2023-02-21T04:04:10.936Z,7.77
2023-02-21T04:06:40.801Z,6.30
2023-02-21T04:09:19.775Z,5.83
2023-02-21T04:11:52.915Z,5.97
2023-02-21T04:14:36.491Z,5.80
2023-02-21T04:17:12.857Z,7.31
2023-02-21T04:19:50.769Z,6.18
2023-02-21T04:22:21.081Z,6.54
2023-02-21T04:24:48.453Z,6.33
2023-02-21T04:27:20.839Z,6.06
2023-02-21T04:30:20.923Z,10.55
2023-02-21T04:33:11.105Z,5.75
2023-02-21T04:35:40.430Z,6.19
2023-02-21T04:38:26.097Z,5.78
2023-02-21T04:41:08.758Z,5.09
2023-02-21T04:43:45.027Z,5.95
2023-02-21T04:46:23.440Z,8.77
2023-02-21T04:49:00.664Z,7.00
2023-02-21T04:51:34.364Z,5.10
2023-02-21T04:54:07.172Z,6.36
2023-02-21T04:56:41.109Z,5.39
2023-02-21T04:59:11.624Z,8.75
2023-02-21T05:01:44.017Z,5.48
2023-02-21T05:04:33.803Z,5.45
2023-02-21T05:07:14.512Z,6.48
2023-02-21T05:09:41.981Z,5.07
2023-02-21T05:12:12.268Z,7.26
2023-02-21T05:14:42.281Z,9.49
2023-02-21T05:17:11.203Z,7.13
2023-02-21T05:19:40.093Z,8.37
2023-02-21T05:22:07.799Z,9.88
2023-02-21T05:24:36.771Z,5.79
2023-02-21T05:27:04.221Z,6.14
2023-02-21T05:29:36.083Z,10.16
2023-02-21T05:32:03.712Z,5.42
2023-02-21T05:34:31.443Z,7.00
2023-02-21T05:36:59.573Z,7.17
2023-02-21T05:39:29.558Z,5.98
2023-02-21T05:41:59.916Z,10.00
2023-02-21T05:44:31.400Z,7.01
2023-02-21T05:47:00.843Z,10.09
2023-02-21T05:49:34.035Z,7.26
2023-02-21T05:52:08.720Z,5.75
2023-02-21T05:55:06.486Z,4.97
2023-02-21T05:57:41.066Z,6.43
2023-02-21T06:00:13.631Z,8.93
2023-02-21T06:02:41.055Z,6.39
2023-02-21T06:05:19.018Z,10.17
2023-02-21T06:07:51.548Z,5.65
2023-02-21T06:10:48.913Z,10.24
2023-02-21T06:13:16.895Z,5.80
2023-02-21T06:15:52.518Z,7.35
2023-02-21T06:18:38.125Z,9.71
2023-02-21T06:21:19.299Z,5.80
2023-02-21T06:23:52.552Z,5.91
2023-02-21T06:26:36.336Z,6.02
2023-02-21T06:29:07.842Z,6.07
2023-02-21T06:31:40.616Z,6.55
2023-02-21T06:34:12.031Z,8.96
2023-02-21T06:36:51.297Z,7.27
2023-02-21T06:39:21.011Z,6.42
2023-02-21T06:41:54.009Z,8.48
2023-02-21T06:44:29.198Z,6.21
2023-02-21T06:47:02.186Z,8.09
2023-02-21T06:49:31.732Z,11.15
2023-02-21T06:52:04.742Z,7.30
2023-02-21T06:54:34.790Z,6.60
2023-02-21T07:01:37.817Z,7.84
2023-02-21T07:04:04.926Z,6.99
2023-02-21T07:06:38.912Z,7.89
2023-02-21T07:09:14.644Z,7.37
2023-02-21T07:11:51.548Z,7.39
2023-02-21T07:14:20.854Z,7.45
2023-02-21T07:17:16.621Z,6.97
2023-02-21T07:36:04.982Z,9.17
2023-02-21T07:38:41.348Z,7.59
2023-02-21T07:45:55.039Z,12.22
2023-02-21T07:48:23.497Z,8.85
2023-02-21T07:50:55.837Z,8.42
2023-02-21T07:53:26.260Z,8.42
2023-02-21T07:56:06.667Z,8.97
2023-02-21T07:58:37.571Z,11.87
2023-02-21T08:01:16.668Z,8.43
2023-02-21T08:03:43.933Z,9.76
2023-02-21T08:06:16.540Z,9.39
2023-02-21T08:09:00.243Z,8.19
2023-02-21T08:11:34.250Z,7.73
2023-02-21T08:14:07.548Z,8.79
2023-02-21T08:16:51.151Z,8.37
2023-02-21T08:19:29.992Z,8.10
2023-02-21T08:22:07.560Z,11.96
2023-02-21T08:24:50.660Z,7.73
2023-02-21T08:27:27.490Z,6.98
2023-02-21T08:30:08.103Z,8.11
2023-02-21T08:32:41.825Z,8.38
2023-02-21T08:35:26.210Z,8.27
2023-02-21T08:38:03.137Z,8.43
2023-02-21T08:40:39.370Z,8.90
2023-02-21T08:43:12.329Z,9.86
2023-02-21T08:45:57.699Z,9.91
2023-02-21T08:48:27.882Z,9.13
2023-02-21T08:51:03.905Z,8.15
2023-02-21T08:53:34.001Z,8.29
2023-02-21T08:56:01.135Z,8.67
2023-02-21T08:58:38.183Z,11.43
2023-02-21T09:01:07.663Z,11.34
2023-02-21T09:03:36.880Z,12.63
2023-02-21T09:06:03.871Z,12.70
2023-02-21T09:08:33.973Z,12.74
2023-02-21T09:11:01.389Z,12.67
2023-02-21T09:13:29.617Z,12.69
2023-02-21T09:15:57.261Z,11.07
2023-02-21T09:18:24.196Z,12.30
2023-02-21T09:20:53.995Z,11.97
2023-02-21T09:23:21.827Z,12.31
2023-02-21T09:25:49.375Z,12.76
2023-02-21T09:28:17.039Z,12.07
2023-02-21T09:30:47.250Z,11.17
2023-02-21T09:33:14.252Z,12.02
2023-02-21T09:35:41.514Z,12.56
2023-02-21T09:38:12.972Z,11.54
2023-02-21T09:40:41.872Z,12.90
2023-02-21T09:43:32.433Z,12.68
2023-02-21T09:46:09.280Z,12.52
2023-02-21T09:48:36.222Z,12.44
2023-02-21T09:51:08.020Z,12.64
2023-02-21T09:53:44.010Z,13.03
2023-02-21T09:56:34.271Z,13.12
2023-02-21T09:59:01.088Z,12.41
2023-02-21T10:02:05.793Z,13.49
2023-02-21T10:05:11.111Z,13.78
2023-02-21T10:08:00.920Z,13.03
2023-02-21T10:10:50.500Z,13.55
2023-02-21T10:13:37.605Z,14.21
2023-02-21T10:16:11.667Z,13.89
2023-02-21T10:18:45.331Z,13.65
2023-02-21T10:21:37.533Z,13.48
2023-02-21T10:24:21.893Z,14.41
2023-02-21T10:27:22.421Z,12.98
2023-02-21T10:29:55.434Z,14.51
2023-02-21T10:32:25.561Z,14.68
2023-02-21T10:34:55.082Z,14.17
2023-02-21T10:37:34.564Z,14.60
2023-02-21T10:40:08.816Z,14.09
2023-02-21T10:43:21.734Z,14.89
2023-02-21T10:45:59.369Z,15.27
2023-02-21T10:48:41.352Z,15.16
2023-02-21T10:51:32.139Z,15.40
2023-02-21T10:54:24.770Z,16.07
2023-02-21T10:56:55.643Z,16.08
2023-02-21T10:59:28.950Z,15.93
2023-02-21T11:01:59.561Z,15.43
2023-02-21T11:04:30.087Z,15.98
2023-02-21T11:07:05.370Z,15.60
2023-02-21T11:09:39.696Z,16.48
2023-02-21T11:12:16.554Z,16.43
2023-02-21T11:15:17.002Z,16.56
2023-02-21T11:17:45.757Z,16.92
2023-02-21T11:20:27.204Z,15.69
2023-02-21T11:22:54.256Z,16.74
2023-02-21T11:25:23.617Z,16.24
2023-02-21T11:28:04.276Z,16.10
2023-02-21T11:30:36.875Z,16.33
2023-02-21T11:33:04.938Z,16.45
2023-02-21T11:35:35.399Z,16.88
2023-02-21T11:38:10.116Z,17.29
2023-02-21T11:40:48.857Z,16.94
2023-02-21T11:43:21.778Z,17.14
2023-02-21T11:46:09.446Z,17.05
2023-02-21T11:48:48.107Z,17.37
2023-02-21T11:51:42.176Z,16.63
2023-02-21T11:54:09.161Z,17.44
2023-02-21T11:56:43.014Z,18.20
2023-02-21T11:59:44.623Z,17.61
2023-02-21T12:02:23.488Z,17.29
2023-02-21T12:05:07.195Z,16.44
2023-02-21T12:08:05.410Z,17.17
2023-02-21T12:10:47.360Z,16.39
2023-02-21T12:13:53.566Z,16.28
2023-02-21T12:16:43.244Z,17.38
2023-02-21T12:19:13.082Z,17.31
2023-02-21T12:22:23.401Z,17.99
2023-02-21T12:24:58.813Z,18.52
2023-02-21T12:27:34.595Z,18.78
2023-02-21T12:30:27.332Z,20.03
2023-02-21T12:32:58.480Z,20.24
2023-02-21T12:35:27.583Z,19.82
2023-02-21T12:38:04.552Z,18.93
2023-02-21T12:40:44.060Z,18.66
2023-02-21T12:43:38.497Z,17.93
2023-02-21T12:46:18.116Z,17.75
2023-02-21T12:48:58.585Z,17.54
2023-02-21T12:51:40.913Z,17.49
2023-02-21T12:54:16.232Z,16.92
2023-02-21T12:57:01.171Z,16.41
2023-02-21T12:59:48.823Z,17.48
2023-02-21T13:02:24.039Z,17.53
2023-02-21T13:05:05.648Z,17.64
2023-02-21T13:07:38.876Z,17.56
2023-02-21T13:10:13.251Z,17.35
2023-02-21T13:12:59.365Z,18.94
2023-02-21T13:15:30.772Z,19.19
2023-02-21T13:18:06.654Z,18.87
2023-02-21T13:20:40.847Z,18.17
2023-02-21T13:24:04.667Z,19.11
2023-02-21T13:26:50.998Z,19.39
2023-02-21T13:29:39.158Z,19.08
2023-02-21T13:32:11.472Z,19.27
2023-02-21T13:34:41.889Z,17.39
2023-02-21T13:37:20.840Z,16.74
2023-02-21T13:39:53.977Z,15.88
2023-02-21T13:42:28.045Z,16.03
2023-02-21T13:45:15.633Z,17.45
2023-02-21T13:47:57.845Z,18.16
2023-02-21T13:50:40.252Z,18.84
2023-02-21T13:53:09.092Z,18.55
2023-02-21T13:55:37.412Z,19.21
2023-02-21T13:58:05.404Z,19.48
2023-02-21T14:00:32.183Z,18.50
2023-02-21T14:03:09.946Z,18.83
2023-02-21T14:05:56.934Z,19.25
2023-02-21T14:08:38.112Z,19.88
2023-02-21T14:11:07.689Z,21.18
2023-02-21T14:13:54.726Z,22.20
2023-02-21T14:16:50.285Z,23.57
2023-02-21T14:19:35.913Z,24.14
2023-02-21T14:22:10.475Z,23.91
2023-02-21T14:24:41.564Z,21.55
2023-02-21T14:27:14.191Z,22.54
2023-02-21T14:29:43.896Z,22.14
2023-02-21T14:32:10.832Z,21.10
2023-02-21T14:34:54.339Z,20.86
2023-02-21T14:37:30.445Z,21.15
2023-02-21T14:40:10.628Z,21.53
2023-02-21T14:43:02.619Z,21.28
2023-02-21T14:45:44.329Z,20.49
2023-02-21T14:48:50.678Z,18.80
2023-02-21T14:51:36.518Z,18.63
2023-02-21T14:54:11.803Z,18.23
2023-02-21T14:57:00.182Z,17.37
2023-02-21T14:59:29.996Z,17.23
2023-02-21T15:02:23.776Z,16.82
2023-02-21T15:05:12.401Z,16.36
2023-02-21T15:07:48.654Z,16.43
2023-02-21T15:10:23.642Z,16.22
2023-02-21T15:13:01.282Z,16.02
2023-02-21T15:15:32.139Z,15.77
2023-02-21T15:18:05.216Z,15.77
2023-02-21T15:20:34.680Z,14.83
2023-02-21T15:23:13.238Z,15.03
2023-02-21T15:25:43.576Z,14.10
2023-02-21T15:28:28.504Z,14.58
2023-02-21T15:31:09.764Z,14.99
2023-02-21T15:33:42.024Z,15.00
2023-02-21T15:36:16.007Z,14.95
2023-02-21T15:38:48.164Z,14.90
2023-02-21T15:41:37.717Z,14.88
2023-02-21T15:44:10.989Z,14.15
2023-02-21T15:46:49.362Z,13.97
2023-02-21T15:49:23.288Z,14.81
2023-02-21T15:51:51.456Z,14.80
2023-02-21T15:54:18.318Z,15.02
2023-02-21T15:56:45.635Z,14.59
2023-02-21T15:59:20.504Z,14.56
2023-02-21T16:02:17.284Z,14.82
2023-02-21T16:04:46.505Z,14.56
2023-02-21T16:07:35.038Z,14.56
2023-02-21T16:10:11.207Z,13.61
2023-02-21T16:12:46.653Z,14.25
2023-02-21T16:15:13.389Z,14.30
2023-02-21T16:17:41.414Z,13.97
2023-02-21T16:20:17.530Z,14.16
2023-02-21T16:23:08.228Z,14.09
2023-02-21T16:26:15.659Z,13.44
2023-02-21T16:28:44.477Z,13.78
2023-02-21T16:31:26.038Z,13.37
2023-02-21T16:33:52.893Z,13.72
2023-02-21T16:36:25.712Z,13.02
2023-02-21T16:38:55.203Z,13.04
2023-02-21T16:41:22.285Z,13.03
2023-02-21T16:43:49.185Z,13.03
2023-02-21T16:46:22.862Z,13.73
2023-02-21T16:48:51.941Z,13.74
2023-02-21T16:51:21.447Z,12.27
2023-02-21T16:53:50.989Z,13.06
2023-02-21T16:56:20.498Z,12.58
2023-02-21T16:58:51.632Z,13.76
2023-02-21T17:01:25.778Z,13.71
2023-02-21T17:03:53.958Z,13.08
2023-02-21T17:06:22.847Z,13.70
2023-02-21T17:08:52.868Z,13.33
2023-02-21T17:11:19.804Z,13.78
2023-02-21T17:13:46.712Z,13.28
2023-02-21T17:16:16.578Z,13.54
2023-02-21T17:18:49.725Z,13.89
2023-02-21T17:21:16.891Z,13.42
2023-02-21T17:23:46.179Z,12.93
2023-02-21T17:26:13.272Z,12.98
2023-02-21T17:28:40.251Z,13.10
2023-02-21T17:31:09.268Z,13.48
2023-02-21T17:33:38.706Z,13.98
2023-02-21T17:36:05.832Z,13.92
2023-02-21T17:38:35.884Z,13.41
2023-02-21T17:41:08.876Z,13.55
2023-02-21T17:43:38.727Z,13.76
2023-02-21T17:46:10.229Z,13.43
2023-02-21T17:48:41.526Z,12.16
2023-02-21T17:51:23.740Z,13.73
2023-02-21T17:53:53.331Z,13.18
2023-02-21T17:56:26.374Z,13.56
2023-02-21T17:58:59.048Z,13.24
2023-02-21T18:01:29.454Z,13.22
2023-02-21T18:04:01.197Z,12.86
2023-02-21T18:06:33.519Z,13.03
2023-02-21T18:09:00.535Z,13.74
2023-02-21T18:11:31.757Z,13.63
2023-02-21T18:13:58.700Z,13.26
2023-02-21T18:16:27.875Z,13.94
2023-02-21T18:18:57.030Z,13.50
2023-02-21T18:21:27.540Z,13.85
2023-02-21T18:23:56.872Z,12.71
2023-02-21T18:26:23.670Z,13.87
2023-02-21T18:28:50.677Z,12.94
2023-02-21T18:31:20.871Z,13.17
2023-02-21T18:33:49.350Z,13.01
2023-02-21T18:36:18.300Z,13.44
2023-02-21T18:38:45.074Z,13.35
2023-02-21T18:41:13.835Z,12.80
2023-02-21T18:43:46.162Z,12.72
2023-02-21T18:46:16.274Z,12.38
2023-02-21T18:48:47.440Z,12.84
2023-02-21T18:51:19.914Z,12.69
2023-02-21T18:53:48.432Z,12.24
2023-02-21T18:56:19.391Z,12.43
2023-02-21T18:58:49.570Z,12.68
2023-02-21T19:01:19.297Z,13.16
2023-02-21T19:03:46.399Z,13.16
2023-02-21T19:06:17.172Z,12.98
2023-02-21T19:08:46.768Z,13.18
2023-02-21T19:11:16.149Z,11.97
2023-02-21T19:13:49.925Z,12.78
2023-02-21T19:16:24.662Z,12.47
2023-02-21T19:18:56.345Z,12.97
2023-02-21T19:21:26.597Z,12.84
2023-02-21T19:23:53.333Z,12.23
2023-02-21T19:26:27.879Z,12.80
2023-02-21T19:28:55.557Z,12.67
2023-02-21T19:31:22.636Z,12.59
2023-02-21T19:33:51.874Z,13.13
2023-02-21T19:36:22.930Z,13.08
2023-02-21T19:38:49.920Z,12.02
2023-02-21T19:41:18.091Z,13.00
2023-02-21T19:43:45.060Z,12.20
2023-02-21T19:46:25.922Z,13.13
2023-02-21T19:48:57.063Z,12.31
2023-02-21T19:51:28.248Z,12.93
2023-02-21T19:53:59.405Z,12.38
2023-02-21T19:56:30.036Z,12.09
2023-02-21T19:59:00.039Z,12.52
2023-02-21T20:01:27.155Z,12.44
2023-02-21T20:03:56.510Z,12.25
2023-02-21T20:06:28.028Z,12.93
2023-02-21T20:08:56.224Z,12.90
2023-02-21T20:11:25.632Z,12.20
2023-02-21T20:13:54.805Z,11.46
2023-02-21T20:16:22.540Z,12.45
2023-02-21T20:18:51.822Z,12.79
2023-02-21T20:21:19.337Z,12.73
2023-02-21T20:23:48.696Z,12.80
2023-02-21T20:26:16.404Z,11.95
2023-02-21T20:28:43.247Z,12.50
2023-02-21T20:31:16.907Z,12.31
2023-02-21T20:33:46.962Z,12.02
2023-02-21T20:36:14.576Z,11.97
2023-02-21T20:38:41.728Z,11.28
2023-02-21T20:41:15.866Z,12.09
2023-02-21T20:43:42.807Z,12.00
2023-02-21T20:46:20.496Z,12.25
2023-02-21T20:48:47.502Z,12.13
2023-02-21T20:51:14.536Z,12.24
2023-02-21T20:53:48.034Z,11.67
2023-02-21T20:56:14.862Z,11.30
2023-02-21T20:58:43.973Z,11.48
2023-02-21T21:01:14.897Z,11.98
2023-02-21T21:03:42.117Z,11.54
2023-02-21T21:06:12.079Z,11.76
2023-02-21T21:08:38.924Z,11.46
2023-02-21T21:11:05.982Z,11.28
2023-02-21T21:13:33.139Z,11.76
2023-02-21T21:16:00.010Z,11.49
2023-02-21T21:18:27.164Z,11.91
2023-02-21T21:20:56.680Z,11.35
2023-02-21T21:23:25.968Z,11.25
2023-02-21T21:25:52.950Z,11.54
2023-02-21T21:28:22.496Z,11.84
2023-02-21T21:30:49.495Z,11.01
2023-02-21T21:33:19.561Z,11.29
2023-02-21T21:35:46.481Z,11.32
2023-02-21T21:38:15.990Z,11.72
2023-02-21T21:40:47.970Z,10.93
2023-02-21T21:43:18.243Z,11.10
2023-02-21T21:45:47.459Z,10.80
2023-02-21T21:48:19.701Z,11.01
2023-02-21T21:50:50.358Z,11.34
2023-02-21T21:53:17.257Z,10.32
2023-02-21T21:55:44.177Z,10.65
2023-02-21T21:58:14.127Z,10.95
2023-02-21T22:00:46.138Z,10.98
2023-02-21T22:03:15.374Z,11.07
2023-02-21T22:05:50.705Z,11.23
2023-02-21T22:08:22.770Z,10.81
2023-02-21T22:10:49.606Z,10.39
2023-02-21T22:13:21.092Z,10.51
2023-02-21T22:15:48.502Z,10.67
2023-02-21T22:18:22.534Z,10.79
2023-02-21T22:20:52.140Z,10.28
2023-02-21T22:23:24.182Z,10.82
2023-02-21T22:25:51.306Z,9.99
2023-02-21T22:28:18.827Z,10.69
2023-02-21T22:30:46.205Z,10.89
2023-02-21T22:33:17.798Z,10.73
2023-02-21T22:35:44.850Z,10.87
2023-02-21T22:38:15.740Z,10.70
2023-02-21T22:40:46.394Z,10.95
2023-02-21T22:43:14.007Z,10.93
2023-02-21T22:45:49.998Z,10.72
2023-02-21T22:48:19.550Z,10.33
2023-02-21T22:50:47.628Z,10.74
2023-02-21T22:53:19.064Z,10.75
2023-02-21T22:55:51.988Z,10.98
2023-02-21T22:58:22.674Z,10.62
2023-02-21T23:00:55.003Z,10.79
2023-02-21T23:03:21.786Z,10.78
2023-02-21T23:05:52.283Z,10.69
2023-02-21T23:08:22.735Z,10.04
2023-02-21T23:10:50.255Z,10.38
2023-02-21T23:13:20.006Z,10.87
2023-02-21T23:15:47.396Z,9.20
2023-02-21T23:18:23.156Z,10.81
2023-02-21T23:20:54.885Z,10.68
2023-02-21T23:23:25.994Z,10.64
2023-02-21T23:26:01.207Z,10.55
2023-02-21T23:28:29.417Z,10.59
2023-02-21T23:30:58.135Z,9.83
2023-02-21T23:33:31.120Z,9.64
2023-02-21T23:35:58.595Z,10.31
2023-02-21T23:38:28.539Z,10.33
2023-02-21T23:40:57.649Z,10.05
2023-02-21T23:43:35.878Z,10.44
2023-02-21T23:46:06.895Z,10.19
2023-02-21T23:48:37.636Z,9.71
2023-02-21T23:51:08.159Z,9.96
2023-02-21T23:53:35.326Z,10.04
2023-02-21T23:56:06.495Z,10.52
2023-02-21T23:58:36.086Z,9.51
